Tucson, AZ

8:05 PM MST on September 16, 2014 (GMT -0700)
Oro Valley Town Hall | Change Station
CLOSE
Current Station
Personal Weather Station
Location: Oro Valley, AZ
Elevation: 2717 ft
Nearby Weather Stations
Active Advisory: Flash Flood Watch

Elev 2717 ft 32.41 °N, 111.00 °W | Updated 5 minutes ago

Overcast
Overcast
77.0 °F
Feels Like 79 °F
N
4.7
Wind Variable Wind from NW
Gusts 5.8 mph

Today
High -- | Low -- °F
--% Chance of Precip.
Yesterday
High -- | Low -- °F
Precip. -- in
6:08 AM 6:28 PM
Last Quarter, 40% visible
Pressure 29.80 in
Visibility 10.0 miles
Clouds Scattered Clouds 11000 ft
Heat Index 79 °F
Dew Point 67 °F
Humidity 71%
Rainfall -999.00 in
Snow Depth 0 in , 2 in , 0 in
UV 0 out of 12
Pollen 3.80 out of 12
Air Quality Not available.
Flu Activity Not available.
METAR KDMA 170258Z AUTO 07009KT 10SM SCT110 26/19 A2991 RMK AO2 DZB0157E0225 SLP090 P0000 60000 T02550186 53000 $

More Conditions Fewer Conditions

Pressure 29.80 in
Visibility 10.0 miles
Clouds Scattered Clouds 11000 ft
Heat Index 79 °F
Dew Point 67 °F
Humidity 71%
Rainfall -999.00 in
Snow Depth 0 in , 2 in , 0 in
UV 0 out of 12
Pollen 3.80 out of 12
Air Quality Not available.
Flu Activity Not available.
METAR KDMA 170258Z AUTO 07009KT 10SM SCT110 26/19 A2991 RMK AO2 DZB0157E0225 SLP090 P0000 60000 T02550186 53000 $

More Conditions Fewer Conditions

10-Day Weather Forecast

Almanac

Astronomy

Sep. 16, 2014 Rise Set
Actual Time 6:08 AM MST 6:28 PM MST
Civil Twilight 5:43 AM MST 6:53 PM MST
Nautical Twilight 5:15 AM MST 7:21 PM MST
Astronomical Twilight 4:45 AM MST 7:50 PM MST
Moon No Moon Rise 1:40 PM MST (9/16)
Length of Visible Light 13h 09m
Length of Day
12h 20m
Tomorrow will be 1m 58s shorter.
Last Quarter, 40% of the Moon is Illuminated
Today
Last Quarter
Sep 24
New
Oct 1
First Quarter
Oct 8
Full
Oct 15
Last Quarter

Today's Extremes

State Highs State Lows

Community

WunderPhotos

Upload Photos

1,753,950 photos uploaded!

Nearby

Snow Depth

Station Depth Elevation
Hannagan Meadows 0 in 9020 ft
Workman Creek 2 in 6900 ft
White Horse Lake 0 in 7180 ft
Fry 0 in 7200 ft
Coronado Trail 0 in 8400 ft

Earthquake Activity

City Distance Mag. Time & Date
No recent earthquake activity has been reported nearby.
Minimum magnitude displayed is 2.5.

Coastal Water Temperatures

Place Temperature
No Stations Reporting

Nearby Weather Stations